Time;durP1;ratioP1;P1;durP2;ratioP2;P2;SDS_P1;SDS_P2;PMS_P1;PMS_P2;Temp;Humidity;BMP_temperature;BMP_pressure;BME280_temperature;BME280_humidity;BME280_pressure;Samples;Min_cycle;Max_cycle;Signal;HPM_P1;HPM_P2
2022/07/06 00:02:03;;;;;;;3.50;1.70;;;17.30;49.80;;;;;;5022077;28;20045;-45
2022/07/06 00:04:30;;;;;;;4.13;1.80;;;17.20;50.00;;;;;;5025255;28;20053;-45
2022/07/06 00:07:00;;;;;;;1.83;1.73;;;17.10;50.00;;;;;;5020299;28;20045;-43
2022/07/06 00:09:27;;;;;;;2.00;1.90;;;17.10;50.50;;;;;;5020684;28;20053;-44
2022/07/06 00:11:56;;;;;;;5.00;1.88;;;17.00;50.30;;;;;;5011502;28;20046;-44
2022/07/06 00:14:25;;;;;;;3.90;1.77;;;16.90;50.40;;;;;;5025882;28;20065;-43
2022/07/06 00:16:54;;;;;;;2.25;1.55;;;16.90;50.40;;;;;;5026728;28;20528;-44
2022/07/06 00:19:23;;;;;;;2.85;1.90;;;16.80;50.40;;;;;;5027558;28;20443;-44
2022/07/06 00:21:55;;;;;;;1.77;1.60;;;16.80;50.50;;;;;;5014386;28;20049;-43
2022/07/06 00:24:25;;;;;;;1.80;1.70;;;16.70;50.60;;;;;;5013202;28;20210;-45
2022/07/06 00:26:52;;;;;;;2.67;2.10;;;16.60;50.60;;;;;;5011155;28;20092;-45
2022/07/06 00:29:21;;;;;;;1.52;1.42;;;16.60;50.70;;;;;;5010352;28;20045;-43
2022/07/06 00:31:47;;;;;;;3.60;1.60;;;16.50;50.80;;;;;;5029060;28;20045;-44
2022/07/06 00:34:15;;;;;;;2.22;2.05;;;16.40;50.90;;;;;;5022441;28;20424;-43
2022/07/06 00:36:41;;;;;;;5.88;2.05;;;16.40;51.00;;;;;;5028774;28;20045;-43
2022/07/06 00:39:08;;;;;;;2.00;1.90;;;16.30;51.00;;;;;;5025176;28;20626;-44
2022/07/06 00:41:35;;;;;;;2.03;1.92;;;16.30;51.30;;;;;;5022599;28;20501;-44
2022/07/06 00:44:08;;;;;;;3.67;2.30;;;16.20;51.50;;;;;;5019755;28;20100;-44
2022/07/06 00:46:37;;;;;;;3.42;1.65;;;16.20;52.10;;;;;;5029472;28;20045;-44
2022/07/06 00:49:04;;;;;;;2.55;2.33;;;16.20;51.90;;;;;;5005258;28;20034;-44
2022/07/06 00:51:36;;;;;;;2.85;2.30;;;16.10;51.90;;;;;;5018146;28;20045;-42
2022/07/06 00:54:04;;;;;;;3.97;2.20;;;16.10;52.10;;;;;;5023575;28;20045;-44
2022/07/06 00:56:34;;;;;;;2.95;1.88;;;16.10;52.10;;;;;;5027985;28;20049;-45
2022/07/06 00:59:02;;;;;;;2.10;1.90;;;16.10;52.80;;;;;;5006900;28;20034;-43
2022/07/06 01:01:29;;;;;;;2.28;2.05;;;16.00;52.30;;;;;;5018730;28;20041;-44
2022/07/06 01:03:58;;;;;;;2.28;2.08;;;16.00;52.30;;;;;;5023615;28;20037;-44
2022/07/06 01:06:30;;;;;;;2.15;2.05;;;16.00;52.70;;;;;;5022683;28;20497;-43
2022/07/06 01:08:58;;;;;;;3.63;2.10;;;16.00;52.40;;;;;;5019279;28;20050;-43
2022/07/06 01:11:28;;;;;;;3.30;2.58;;;16.00;52.60;;;;;;5011729;28;20053;-46
2022/07/06 01:13:58;;;;;;;2.38;2.08;;;16.00;53.10;;;;;;5026866;28;20046;-44
2022/07/06 01:16:27;;;;;;;2.58;2.38;;;15.90;53.00;;;;;;5003040;28;20673;-46
2022/07/06 01:19:00;;;;;;;4.15;2.40;;;15.90;53.00;;;;;;5038354;28;20044;-45
2022/07/06 01:21:26;;;;;;;5.63;2.00;;;15.90;53.20;;;;;;5022061;28;20390;-43
2022/07/06 01:23:53;;;;;;;2.83;2.10;;;15.90;53.10;;;;;;5026877;28;20041;-44
2022/07/06 01:26:21;;;;;;;3.55;2.25;;;15.90;53.10;;;;;;5028013;28;20505;-45
2022/07/06 01:28:52;;;;;;;3.25;2.40;;;15.90;53.30;;;;;;5023494;28;20394;-45
2022/07/06 01:31:25;;;;;;;2.25;2.05;;;15.90;53.30;;;;;;5013237;28;20053;-47
2022/07/06 01:33:55;;;;;;;2.97;2.40;;;15.90;53.60;;;;;;5021942;28;20053;-46
2022/07/06 01:36:27;;;;;;;2.50;2.30;;;15.90;53.60;;;;;;5009061;28;20038;-43
2022/07/06 01:38:58;;;;;;;3.00;2.38;;;15.90;53.40;;;;;;5022325;28;20444;-45
2022/07/06 01:41:27;;;;;;;2.45;2.25;;;15.90;53.50;;;;;;5030569;28;20061;-48
2022/07/06 01:43:53;;;;;;;2.67;2.47;;;15.90;53.40;;;;;;5015443;28;20100;-45
2022/07/06 01:46:24;;;;;;;2.55;2.13;;;15.90;53.40;;;;;;5029944;28;20049;-46
2022/07/06 01:48:51;;;;;;;3.97;2.55;;;15.80;53.70;;;;;;5018377;28;20069;-44
2022/07/06 01:51:18;;;;;;;3.22;2.42;;;15.90;53.50;;;;;;5028698;28;20076;-43
2022/07/06 01:53:46;;;;;;;2.67;2.42;;;15.80;53.60;;;;;;5023828;28;20053;-44
2022/07/06 01:56:19;;;;;;;2.53;2.25;;;15.80;53.60;;;;;;5016069;28;20080;-44
2022/07/06 01:58:54;;;;;;;2.97;2.70;;;15.80;53.70;;;;;;5008495;28;20481;-44
2022/07/06 02:01:22;;;;;;;2.58;2.38;;;15.80;53.60;;;;;;5007862;28;20052;-47
2022/07/06 02:03:49;;;;;;;3.05;2.75;;;15.70;53.60;;;;;;5009728;28;20042;-44
2022/07/06 02:06:19;;;;;;;3.35;1.95;;;15.70;53.70;;;;;;5022536;28;20045;-45
2022/07/06 02:08:47;;;;;;;2.70;2.50;;;15.70;53.80;;;;;;5021977;28;20048;-45
2022/07/06 02:11:15;;;;;;;2.78;2.50;;;15.70;54.00;;;;;;5029888;28;20046;-46
2022/07/06 02:13:43;;;;;;;3.88;2.95;;;15.70;54.10;;;;;;5017227;28;20436;-46
2022/07/06 02:16:14;;;;;;;6.65;2.70;;;15.70;54.00;;;;;;5020770;28;20061;-45
2022/07/06 02:18:41;;;;;;;2.63;2.42;;;15.70;54.10;;;;;;5029326;28;20042;-44
2022/07/06 02:21:12;;;;;;;3.10;2.40;;;15.60;53.90;;;;;;5022292;28;20034;-45
2022/07/06 02:23:41;;;;;;;2.65;2.45;;;15.60;54.00;;;;;;5003370;28;20050;-43
2022/07/06 02:26:10;;;;;;;3.55;2.33;;;15.60;54.00;;;;;;5021681;28;20508;-45
2022/07/06 02:28:42;;;;;;;2.60;2.40;;;15.60;54.10;;;;;;5013139;28;20046;-44
2022/07/06 02:31:09;;;;;;;3.50;2.60;;;15.50;54.20;;;;;;5012085;28;20050;-43
2022/07/06 02:33:36;;;;;;;4.10;2.53;;;15.50;54.10;;;;;;5026702;28;20056;-44
2022/07/06 02:36:03;;;;;;;2.70;2.30;;;15.50;54.30;;;;;;5028754;28;20046;-45
2022/07/06 02:38:35;;;;;;;3.70;2.70;;;15.40;54.20;;;;;;5019279;28;20065;-44
2022/07/06 02:41:02;;;;;;;2.70;2.28;;;15.40;54.10;;;;;;5036129;28;20042;-43
2022/07/06 02:43:30;;;;;;;3.40;2.00;;;15.40;54.20;;;;;;5022535;28;20045;-44
2022/07/06 02:45:57;;;;;;;2.22;1.98;;;15.40;54.10;;;;;;5024016;28;20069;-43
2022/07/06 02:48:26;;;;;;;2.45;2.25;;;15.30;54.20;;;;;;5031235;28;20048;-47
2022/07/06 02:51:09;;;;;;;3.72;2.38;;;15.30;54.70;;;;;;5014064;28;20041;-48
2022/07/06 02:53:38;;;;;;;2.53;2.08;;;15.30;55.20;;;;;;4979184;28;20043;-43
2022/07/06 02:56:06;;;;;;;2.67;1.90;;;15.20;54.50;;;;;;4973318;28;20067;-45
2022/07/06 02:58:36;;;;;;;3.08;2.25;;;15.20;54.50;;;;;;4972580;28;20092;-47
2022/07/06 03:01:03;;;;;;;3.72;2.58;;;15.10;54.60;;;;;;4958849;28;20057;-45
2022/07/06 03:03:32;;;;;;;2.63;2.38;;;15.10;54.60;;;;;;4981404;28;20561;-50
2022/07/06 03:06:00;;;;;;;2.85;2.15;;;15.10;55.10;;;;;;4973046;28;20050;-49
2022/07/06 03:08:31;;;;;;;4.35;2.55;;;15.00;54.90;;;;;;4970331;28;20046;-47
2022/07/06 03:10:59;;;;;;;2.28;2.00;;;15.00;55.00;;;;;;4984369;28;20059;-50
2022/07/06 03:13:28;;;;;;;2.90;2.38;;;15.00;55.10;;;;;;4985420;28;20047;-48
2022/07/06 03:15:55;;;;;;;3.95;2.63;;;15.00;55.20;;;;;;4992231;28;20039;-45
2022/07/06 03:18:22;;;;;;;3.13;2.42;;;14.90;55.20;;;;;;4981382;28;20038;-49
2022/07/06 03:20:50;;;;;;;2.80;2.25;;;14.90;55.20;;;;;;4959556;28;20155;-49
2022/07/06 03:23:22;;;;;;;2.38;2.17;;;14.90;55.30;;;;;;4983767;28;20046;-45
2022/07/06 03:25:49;;;;;;;4.10;2.47;;;14.90;55.30;;;;;;4975329;28;20050;-45
2022/07/06 03:28:16;;;;;;;2.40;2.20;;;14.90;55.20;;;;;;4982147;28;20044;-49
2022/07/06 03:30:43;;;;;;;4.47;2.65;;;14.90;55.40;;;;;;4980529;28;20146;-46
2022/07/06 03:33:09;;;;;;;3.05;2.75;;;14.80;55.20;;;;;;4991722;28;20034;-48
2022/07/06 03:35:43;;;;;;;2.20;2.00;;;14.80;55.30;;;;;;4991724;28;20042;-44
2022/07/06 03:38:13;;;;;;;2.53;2.33;;;14.80;55.80;;;;;;4961626;28;20046;-46
2022/07/06 03:40:41;;;;;;;3.28;2.22;;;14.80;55.60;;;;;;4979882;28;20061;-45
2022/07/06 03:43:09;;;;;;;4.65;2.58;;;14.70;55.60;;;;;;4967582;28;20066;-46
2022/07/06 03:45:37;;;;;;;3.80;3.15;;;14.70;55.70;;;;;;4987901;28;20466;-45
2022/07/06 03:48:07;;;;;;;2.90;2.47;;;14.70;55.90;;;;;;4969364;28;20046;-44
2022/07/06 03:50:36;;;;;;;4.13;2.78;;;14.70;55.90;;;;;;4969791;28;20457;-48
2022/07/06 03:53:05;;;;;;;2.83;2.63;;;14.70;55.90;;;;;;4991432;28;20053;-47
2022/07/06 03:55:33;;;;;;;4.85;2.58;;;14.70;56.10;;;;;;4983765;28;20039;-46
2022/07/06 03:58:03;;;;;;;4.20;2.53;;;14.70;56.10;;;;;;4987106;28;20065;-48
2022/07/06 04:00:34;;;;;;;2.85;2.60;;;14.70;56.10;;;;;;4970584;28;20454;-45
2022/07/06 04:03:05;;;;;;;3.15;2.72;;;14.70;56.20;;;;;;4956107;28;20070;-46
2022/07/06 04:05:42;;;;;;;3.42;2.75;;;14.70;56.20;;;;;;4954436;28;20051;-50
2022/07/06 04:08:09;;;;;;;3.05;2.60;;;14.60;56.20;;;;;;4969418;28;20057;-46
2022/07/06 04:10:41;;;;;;;;;;;14.70;56.40;;;;;;4971084;28;20065;-44
2022/07/06 04:13:17;;;;;;;3.10;2.80;;;14.70;56.40;;;;;;4991195;28;19921;-44
2022/07/06 04:15:45;;;;;;;4.75;2.97;;;14.70;56.10;;;;;;4961170;28;20097;-46
2022/07/06 04:18:14;;;;;;;3.42;2.65;;;14.70;56.50;;;;;;4984267;28;20464;-48
2022/07/06 04:20:50;;;;;;;2.55;2.30;;;14.70;56.80;;;;;;4986286;28;20046;-46
2022/07/06 04:23:17;;;;;;;3.10;2.80;;;14.70;57.30;;;;;;4991195;28;20050;-46
2022/07/06 04:25:44;;;;;;;4.60;3.08;;;14.70;57.30;;;;;;4965826;28;20046;-45
2022/07/06 04:28:11;;;;;;;3.28;2.97;;;14.70;57.50;;;;;;4981743;28;20078;-49
2022/07/06 04:30:38;;;;;;;5.25;3.60;;;14.80;57.70;;;;;;4970273;28;20065;-46
2022/07/06 04:33:12;;;;;;;4.03;3.13;;;14.80;57.90;;;;;;4973987;28;20431;-44
2022/07/06 04:35:40;;;;;;;3.47;2.85;;;14.90;58.20;;;;;;4957023;28;20766;-46
2022/07/06 04:38:07;;;;;;;3.83;3.35;;;14.90;58.10;;;;;;4980934;28;20043;-46
2022/07/06 04:40:36;;;;;;;5.38;3.60;;;14.90;58.30;;;;;;4974911;28;20482;-43
2022/07/06 04:43:10;;;;;;;4.53;3.28;;;14.90;58.40;;;;;;4961590;28;20074;-49
2022/07/06 04:45:37;;;;;;;4.28;3.47;;;15.00;58.50;;;;;;4978513;28;20049;-46
2022/07/06 04:48:05;;;;;;;7.65;3.83;;;15.10;58.70;;;;;;4972580;28;20046;-44
2022/07/06 04:50:35;;;;;;;4.68;3.38;;;15.10;58.70;;;;;;4974233;28;20453;-44
2022/07/06 04:53:10;;;;;;;4.28;3.42;;;15.20;58.70;;;;;;4946963;28;20118;-47
2022/07/06 04:55:36;;;;;;;3.95;3.65;;;15.20;58.70;;;;;;4965967;28;20050;-47
2022/07/06 04:58:03;;;;;;;4.97;3.50;;;15.30;58.80;;;;;;4968711;28;20086;-50
2022/07/06 05:00:31;;;;;;;4.93;3.63;;;15.30;58.90;;;;;;4951287;28;20065;-50
2022/07/06 05:02:58;;;;;;;4.43;3.70;;;15.40;59.00;;;;;;4971188;28;20474;-50
2022/07/06 05:05:26;;;;;;;4.28;3.25;;;15.40;59.10;;;;;;4955968;28;20043;-49
2022/07/06 05:07:53;;;;;;;3.88;3.33;;;15.50;59.30;;;;;;4954201;28;20046;-50
2022/07/06 05:10:20;;;;;;;6.30;3.30;;;15.60;59.40;;;;;;4959881;28;20070;-47
2022/07/06 05:12:50;;;;;;;4.55;3.45;;;15.60;59.50;;;;;;4983947;28;20077;-48
2022/07/06 05:15:17;;;;;;;5.07;3.58;;;15.70;59.40;;;;;;4981990;28;20042;-46
2022/07/06 05:17:44;;;;;;;4.32;3.90;;;15.70;59.40;;;;;;4989877;28;20054;-46
2022/07/06 05:20:12;;;;;;;4.78;3.22;;;15.80;59.50;;;;;;4959184;28;20133;-49
2022/07/06 05:22:42;;;;;;;3.45;3.15;;;15.80;59.50;;;;;;4980940;28;20094;-49
2022/07/06 05:25:14;;;;;;;;;;;15.90;59.60;;;;;;4957345;28;20106;-50
2022/07/06 05:27:41;;;;;;;4.13;3.08;;;16.00;59.30;;;;;;4970397;28;20412;-50
2022/07/06 05:30:09;;;;;;;3.78;3.25;;;16.00;59.00;;;;;;4951008;28;20035;-48
2022/07/06 05:32:36;;;;;;;4.55;3.45;;;16.10;59.40;;;;;;4978962;28;20503;-51
2022/07/06 05:35:04;;;;;;;3.80;3.33;;;16.10;59.50;;;;;;4981654;28;20133;-46
2022/07/06 05:37:50;;;;;;;3.25;2.95;;;16.20;59.60;;;;;;4969843;28;20050;-49
2022/07/06 05:40:18;;;;;;;5.53;2.83;;;16.20;59.50;;;;;;4974180;28;20066;-46
2022/07/06 05:42:45;;;;;;;4.80;2.60;;;16.30;59.60;;;;;;4959503;28;20054;-46
2022/07/06 05:45:13;;;;;;;5.10;2.60;;;16.40;59.60;;;;;;4980549;28;20497;-43
2022/07/06 05:50:25;;;;;;;3.22;2.22;;;16.60;59.40;;;;;;4981373;28;20038;-46
2022/07/06 05:53:05;;;;;;;5.28;2.33;;;16.60;59.20;;;;;;4978018;28;20187;-50
2022/07/06 05:55:46;;;;;;;2.45;2.13;;;16.60;59.80;;;;;;4989553;28;20437;-45
2022/07/06 05:58:14;;;;;;;4.47;2.30;;;16.70;58.80;;;;;;4941155;28;20138;-50
2022/07/06 06:00:43;;;;;;;4.55;2.70;;;16.80;58.70;;;;;;4966132;28;20046;-49
2022/07/06 06:03:16;;;;;;;4.35;2.30;;;16.90;58.70;;;;;;4974623;28;20074;-44
2022/07/06 06:05:44;;;;;;;2.95;2.08;;;16.90;58.60;;;;;;4974877;28;20042;-44
2022/07/06 06:08:13;;;;;;;2.47;1.58;;;17.00;58.70;;;;;;4978867;28;20043;-50
2022/07/06 06:10:40;;;;;;;2.67;1.50;;;17.00;58.50;;;;;;4980774;28;20058;-45
2022/07/06 06:13:11;;;;;;;3.05;2.17;;;17.20;58.60;;;;;;4985165;28;20108;-50
2022/07/06 06:15:38;;;;;;;2.92;1.48;;;17.20;58.30;;;;;;4972614;28;20074;-46
2022/07/06 06:18:05;;;;;;;3.55;2.03;;;17.30;58.20;;;;;;4979712;28;20039;-50
2022/07/06 06:20:32;;;;;;;4.60;2.13;;;17.40;58.00;;;;;;4986665;28;20042;-50
2022/07/06 06:23:00;;;;;;;3.33;1.70;;;17.50;58.00;;;;;;4994727;28;20065;-48
2022/07/06 06:25:39;;;;;;;2.90;1.92;;;17.50;58.10;;;;;;4960675;28;20042;-48
2022/07/06 06:28:08;;;;;;;5.07;2.47;;;17.60;58.20;;;;;;4989752;28;20085;-47
2022/07/06 06:30:37;;;;;;;2.53;1.73;;;17.60;57.80;;;;;;4986090;28;20034;-46
2022/07/06 06:33:11;;;;;;;3.17;1.60;;;17.70;57.60;;;;;;4959843;28;20047;-45
2022/07/06 06:35:45;;;;;;;1.50;1.38;;;17.80;57.30;;;;;;4971486;28;20049;-47
2022/07/06 06:38:13;;;;;;;3.85;2.20;;;17.90;57.10;;;;;;4981989;28;20046;-44
2022/07/06 06:40:40;;;;;;;2.40;1.70;;;17.90;56.80;;;;;;4989060;28;20046;-45
2022/07/06 06:43:06;;;;;;;2.63;1.75;;;17.90;56.90;;;;;;4989190;28;20081;-46
2022/07/06 06:45:38;;;;;;;2.20;1.95;;;18.00;56.90;;;;;;4978379;28;20038;-47
2022/07/06 06:48:04;;;;;;;3.58;1.65;;;18.00;57.00;;;;;;4986627;28;20521;-45
2022/07/06 06:50:31;;;;;;;6.05;1.58;;;18.10;56.70;;;;;;4991593;28;20038;-50
2022/07/06 06:52:58;;;;;;;2.78;0.98;;;18.10;57.30;;;;;;4967576;28;20043;-47
2022/07/06 06:55:25;;;;;;;3.30;0.98;;;18.10;56.70;;;;;;4978913;28;20045;-47
2022/07/06 06:57:52;;;;;;;2.65;1.10;;;18.20;56.60;;;;;;4985249;28;20038;-46
2022/07/06 07:00:19;;;;;;;2.17;0.85;;;18.20;56.10;;;;;;4978192;28;20046;-51
2022/07/06 07:02:47;;;;;;;3.28;1.17;;;18.40;55.90;;;;;;4989774;28;20062;-51
2022/07/06 07:05:13;;;;;;;2.15;0.90;;;18.40;55.80;;;;;;4983450;28;20047;-50
2022/07/06 07:07:40;;;;;;;3.15;0.93;;;18.50;55.40;;;;;;4981058;28;20604;-50
2022/07/06 07:10:07;;;;;;;1.30;0.88;;;18.60;55.50;;;;;;4991533;28;20050;-45
2022/07/06 07:12:43;;;;;;;3.33;0.90;;;18.60;55.30;;;;;;4985758;28;20042;-49
2022/07/06 07:15:10;;;;;;;1.90;0.93;;;18.60;55.60;;;;;;4984987;28;20086;-47
2022/07/06 07:17:37;;;;;;;1.55;0.90;;;18.60;55.00;;;;;;4990216;28;20030;-47
2022/07/06 07:20:04;;;;;;;4.00;0.90;;;18.80;54.90;;;;;;4965986;28;20118;-49
2022/07/06 07:22:31;;;;;;;2.28;0.93;;;18.90;55.20;;;;;;4955528;28;20458;-50
2022/07/06 07:25:01;;;;;;;2.50;0.80;;;18.90;54.30;;;;;;4974470;28;20111;-49
2022/07/06 07:27:28;;;;;;;1.17;0.60;;;18.90;54.00;;;;;;4972433;28;20050;-47
2022/07/06 07:29:54;;;;;;;1.00;0.70;;;19.00;53.70;;;;;;4966903;28;20047;-50
2022/07/06 07:32:21;;;;;;;3.00;0.80;;;19.00;53.60;;;;;;4986655;28;20046;-50
2022/07/06 07:34:48;;;;;;;4.28;0.80;;;19.00;53.20;;;;;;4983655;28;20490;-45
2022/07/06 07:37:15;;;;;;;1.10;0.52;;;19.10;53.40;;;;;;4988908;28;20588;-46
2022/07/06 07:39:42;;;;;;;1.63;0.55;;;19.10;53.30;;;;;;4990160;28;20049;-46
2022/07/06 07:42:09;;;;;;;1.60;0.63;;;19.20;53.40;;;;;;4986377;28;20043;-47
2022/07/06 07:44:43;;;;;;;1.77;0.50;;;19.20;53.30;;;;;;4985152;28;20047;-48
2022/07/06 07:47:10;;;;;;;1.17;0.50;;;19.30;53.40;;;;;;4991310;28;20522;-50
2022/07/06 07:49:39;;;;;;;0.73;0.30;;;19.30;53.00;;;;;;4981197;28;20049;-46
2022/07/06 07:52:07;;;;;;;1.02;0.45;;;19.40;52.70;;;;;;4979610;28;20053;-48
2022/07/06 07:54:34;;;;;;;2.20;0.40;;;19.40;52.60;;;;;;4982295;28;20074;-45
2022/07/06 07:57:00;;;;;;;0.47;0.20;;;19.50;52.50;;;;;;4989109;28;20740;-50
2022/07/06 07:59:27;;;;;;;0.63;0.30;;;19.60;52.40;;;;;;4991876;28;20043;-46
2022/07/06 08:01:55;;;;;;;1.42;0.40;;;19.60;52.10;;;;;;4981273;28;20051;-47
2022/07/06 08:04:22;;;;;;;0.73;0.40;;;19.70;52.00;;;;;;4984766;28;20046;-46
2022/07/06 08:06:49;;;;;;;3.22;0.60;;;19.80;51.60;;;;;;4991343;28;20050;-46
2022/07/06 08:09:16;;;;;;;1.92;0.70;;;19.80;51.40;;;;;;4980490;28;20043;-47
2022/07/06 08:11:46;;;;;;;0.45;0.40;;;19.80;51.20;;;;;;4981049;28;20047;-44
2022/07/06 08:14:14;;;;;;;1.83;0.52;;;19.90;51.40;;;;;;4985681;28;20119;-46
2022/07/06 08:16:41;;;;;;;2.42;0.50;;;19.90;51.30;;;;;;4983374;28;20105;-46
2022/07/06 08:19:08;;;;;;;3.03;0.73;;;19.90;51.30;;;;;;4964939;28;20038;-48
2022/07/06 08:21:37;;;;;;;1.98;0.68;;;19.90;51.20;;;;;;4968735;28;20043;-49
2022/07/06 08:24:04;;;;;;;1.17;0.40;;;20.00;51.10;;;;;;4951287;28;20452;-46
2022/07/06 08:26:30;;;;;;;2.30;0.50;;;20.10;51.10;;;;;;4961881;28;20046;-51
2022/07/06 08:28:58;;;;;;;4.35;0.60;;;20.20;51.00;;;;;;4983341;28;20651;-50
2022/07/06 08:31:26;;;;;;;4.13;1.17;;;20.20;50.70;;;;;;4983022;28;20112;-46
2022/07/06 08:34:14;;;;;;;3.38;0.30;;;20.30;50.70;;;;;;4992401;28;20053;-46
2022/07/06 08:36:40;;;;;;;1.27;0.40;;;20.40;50.10;;;;;;4983609;28;20513;-46
2022/07/06 08:39:07;;;;;;;0.82;0.20;;;20.40;49.80;;;;;;4976866;28;20498;-48
2022/07/06 08:41:36;;;;;;;2.15;0.50;;;20.50;49.40;;;;;;4979654;28;20045;-49
2022/07/06 08:44:03;;;;;;;0.57;0.30;;;20.50;49.20;;;;;;4990292;28;20042;-47
2022/07/06 08:46:31;;;;;;;0.73;0.43;;;20.50;49.10;;;;;;4984178;28;20494;-47
2022/07/06 08:49:00;;;;;;;0.88;0.20;;;20.50;48.80;;;;;;4982438;28;20057;-47
2022/07/06 08:51:28;;;;;;;1.17;0.82;;;20.60;48.90;;;;;;4967120;28;20057;-45
2022/07/06 08:53:57;;;;;;;1.10;0.45;;;20.60;48.80;;;;;;4991462;28;20046;-50
2022/07/06 08:56:24;;;;;;;5.45;0.60;;;20.60;48.90;;;;;;4986154;28;20043;-47
2022/07/06 08:58:52;;;;;;;1.17;0.30;;;20.70;48.50;;;;;;4963671;28;20051;-50
2022/07/06 09:01:22;;;;;;;1.05;0.40;;;20.70;48.20;;;;;;4968397;28;20050;-50
2022/07/06 09:03:54;;;;;;;0.40;0.30;;;20.70;48.30;;;;;;4972168;28;20078;-50
2022/07/06 09:06:24;;;;;;;0.22;0.20;;;20.70;48.30;;;;;;4971790;28;20461;-48
2022/07/06 09:08:54;;;;;;;0.73;0.30;;;20.70;48.70;;;;;;4980928;28;20050;-50
2022/07/06 09:11:25;;;;;;;0.63;0.38;;;20.80;48.70;;;;;;4948909;28;20034;-47
2022/07/06 09:13:52;;;;;;;1.05;0.40;;;20.90;48.80;;;;;;4967812;28;20101;-50
2022/07/06 09:16:28;;;;;;;0.95;0.28;;;21.00;48.80;;;;;;4976438;28;20097;-46
2022/07/06 09:19:07;;;;;;;3.88;0.43;;;21.10;49.00;;;;;;4978926;28;20050;-51
2022/07/06 09:21:37;;;;;;;0.20;0.15;;;21.30;48.00;;;;;;4961740;28;20069;-51
2022/07/06 09:24:12;;;;;;;0.60;0.30;;;21.40;47.30;;;;;;4963693;28;20047;-51
2022/07/06 09:26:41;;;;;;;3.67;0.85;;;21.60;46.30;;;;;;4974536;28;20062;-51
2022/07/06 09:29:08;;;;;;;1.52;0.25;;;21.70;45.80;;;;;;4981920;28;20039;-47
2022/07/06 09:31:35;;;;;;;1.38;0.20;;;21.70;45.80;;;;;;4990256;28;20046;-50
2022/07/06 09:34:08;;;;;;;2.38;0.30;;;21.80;45.00;;;;;;4980599;28;20042;-50
2022/07/06 09:36:50;;;;;;;0.80;0.32;;;21.90;44.40;;;;;;4972486;28;20513;-46
2022/07/06 09:39:28;;;;;;;0.85;0.40;;;22.10;44.10;;;;;;4966233;28;20045;-49
2022/07/06 09:41:57;;;;;;;0.20;0.20;;;22.20;44.20;;;;;;4971217;28;20043;-45
2022/07/06 09:44:30;;;;;;;1.52;0.50;;;22.30;44.80;;;;;;4979189;28;20513;-47
2022/07/06 09:47:04;;;;;;;;;;;22.40;43.70;;;;;;4987290;28;20528;-48
2022/07/06 09:49:32;;;;;;;0.55;0.30;;;22.50;44.50;;;;;;4971265;28;19948;-49
2022/07/06 09:52:01;;;;;;;0.65;0.30;;;22.50;44.10;;;;;;4971002;28;20066;-51
2022/07/06 09:54:28;;;;;;;1.10;0.57;;;22.60;44.20;;;;;;4972942;28;20047;-47
2022/07/06 09:56:57;;;;;;;1.08;0.32;;;22.70;44.60;;;;;;4978457;28;20406;-47
2022/07/06 09:59:31;;;;;;;0.55;0.45;;;22.70;44.30;;;;;;4980864;28;20050;-46
2022/07/06 10:02:08;;;;;;;1.05;0.47;;;22.80;43.70;;;;;;4975583;28;20039;-52
2022/07/06 10:04:36;;;;;;;1.42;0.30;;;22.80;43.30;;;;;;4959476;28;20126;-53
2022/07/06 10:07:07;;;;;;;0.60;0.30;;;22.80;42.90;;;;;;4971184;28;20145;-53
2022/07/06 10:09:34;;;;;;;0.90;0.55;;;22.80;43.00;;;;;;4979616;28;20062;-52
2022/07/06 10:12:05;;;;;;;3.33;0.30;;;22.80;42.80;;;;;;4962835;28;20058;-50
2022/07/06 10:14:33;;;;;;;0.77;0.68;;;22.80;42.50;;;;;;4980642;28;20082;-52
2022/07/06 10:17:02;;;;;;;1.85;0.30;;;22.80;42.40;;;;;;4986531;28;20129;-54
2022/07/06 10:19:30;;;;;;;3.25;0.60;;;22.90;42.80;;;;;;4989187;28;20260;-53
2022/07/06 10:22:03;;;;;;;0.45;0.30;;;22.90;42.20;;;;;;4975728;28;20453;-52
2022/07/06 10:24:34;;;;;;;1.35;0.40;;;23.00;42.60;;;;;;4981708;28;20118;-51
2022/07/06 10:27:01;;;;;;;0.52;0.30;;;23.30;42.20;;;;;;4983507;28;20517;-49
2022/07/06 10:29:30;;;;;;;0.47;0.35;;;23.30;42.00;;;;;;4981322;28;20042;-49
2022/07/06 10:31:57;;;;;;;1.85;0.40;;;23.30;41.90;;;;;;4981292;28;20093;-50
2022/07/06 10:34:24;;;;;;;1.17;0.40;;;23.40;41.70;;;;;;4980177;28;20649;-53
2022/07/06 10:36:54;;;;;;;2.40;1.20;;;23.50;41.50;;;;;;4983547;28;20045;-54
2022/07/06 10:42:41;;;;;;;0.57;0.47;;;23.70;41.80;;;;;;4989387;28;20041;-52
2022/07/06 10:45:10;;;;;;;0.75;0.40;;;23.80;41.50;;;;;;4983547;28;20047;-54
2022/07/06 10:47:37;;;;;;;2.90;0.50;;;23.80;41.10;;;;;;4985951;28;20125;-50
2022/07/06 10:50:05;;;;;;;1.05;0.50;;;24.00;40.90;;;;;;4981700;28;20042;-54
2022/07/06 10:52:58;;;;;;;1.05;0.50;;;24.00;40.10;;;;;;4981275;28;20047;-52
2022/07/06 10:55:29;;;;;;;1.60;0.40;;;24.10;39.20;;;;;;4973452;28;20446;-52
2022/07/06 10:57:57;;;;;;;0.57;0.40;;;24.20;39.30;;;;;;4979909;28;20506;-53
2022/07/06 11:00:24;;;;;;;1.13;0.52;;;24.20;39.70;;;;;;4982696;28;20608;-53
2022/07/06 11:02:50;;;;;;;0.65;0.60;;;24.30;39.70;;;;;;4971529;28;20494;-49
2022/07/06 11:05:40;;;;;;;0.40;0.40;;;24.30;38.90;;;;;;4985680;28;20042;-53
2022/07/06 11:08:42;;;;;;;0.52;0.52;;;24.40;38.30;;;;;;4981638;28;20125;-52
2022/07/06 11:11:20;;;;;;;0.50;0.45;;;24.30;38.00;;;;;;4982925;28;20077;-52
2022/07/06 11:14:01;;;;;;;0.63;0.30;;;24.30;38.20;;;;;;4982077;28;20517;-51
2022/07/06 11:17:00;;;;;;;1.02;0.30;;;24.40;38.40;;;;;;4983076;28;20375;-54
2022/07/06 11:19:28;;;;;;;0.40;0.40;;;24.50;38.40;;;;;;4970397;28;20082;-50
2022/07/06 11:22:08;;;;;;;1.55;0.40;;;24.50;38.30;;;;;;4974069;28;20042;-51
2022/07/06 11:24:38;;;;;;;0.50;0.50;;;24.70;37.70;;;;;;4975819;28;20498;-50
2022/07/06 11:27:06;;;;;;;1.05;0.40;;;24.70;37.70;;;;;;4988068;28;20218;-54
2022/07/06 11:29:34;;;;;;;0.45;0.40;;;24.80;37.90;;;;;;4985193;28;20089;-53
2022/07/06 11:32:03;;;;;;;0.68;0.38;;;24.90;37.90;;;;;;4990616;28;20042;-49
2022/07/06 11:34:36;;;;;;;1.45;0.40;;;24.90;37.60;;;;;;4987983;28;20061;-49
2022/07/06 11:37:11;;;;;;;1.60;0.43;;;25.00;36.70;;;;;;4979751;28;20085;-48
2022/07/06 11:39:43;;;;;;;0.82;0.30;;;25.00;36.60;;;;;;4966160;28;20077;-54
2022/07/06 11:42:12;;;;;;;0.40;0.40;;;25.10;36.90;;;;;;4992337;28;20089;-53
2022/07/06 11:44:39;;;;;;;1.02;0.38;;;25.10;37.30;;;;;;4985681;28;20035;-51
2022/07/06 11:47:07;;;;;;;0.43;0.20;;;25.10;37.00;;;;;;4987294;28;20043;-53
2022/07/06 11:49:36;;;;;;;1.65;0.40;;;25.10;37.40;;;;;;4982611;28;20038;-49
2022/07/06 11:52:07;;;;;;;0.82;0.50;;;25.10;36.90;;;;;;4991907;28;20045;-50
2022/07/06 11:54:34;;;;;;;0.30;0.30;;;25.20;36.70;;;;;;4980824;28;20406;-50
2022/07/06 11:57:03;;;;;;;1.08;0.50;;;25.30;37.10;;;;;;4981945;28;20047;-50
2022/07/06 11:59:32;;;;;;;1.75;0.30;;;25.20;36.80;;;;;;4974539;28;20046;-50
2022/07/06 12:02:07;;;;;;;0.93;0.40;;;25.30;37.20;;;;;;4965878;28;20051;-49
2022/07/06 12:04:44;;;;;;;0.85;0.25;;;25.30;36.40;;;;;;4973148;28;20047;-54
2022/07/06 12:07:13;;;;;;;1.42;0.50;;;25.40;36.80;;;;;;4970884;28;20050;-49
2022/07/06 12:09:43;;;;;;;5.38;0.88;;;25.50;37.20;;;;;;4964991;28;20760;-50
2022/07/06 12:12:11;;;;;;;1.73;0.55;;;25.60;36.60;;;;;;4971291;28;20030;-53
2022/07/06 12:14:39;;;;;;;0.40;0.30;;;25.70;36.60;;;;;;4982266;28;20399;-49
2022/07/06 12:17:08;;;;;;;0.50;0.28;;;25.80;36.50;;;;;;4969009;28;20039;-53
2022/07/06 12:19:36;;;;;;;0.98;0.50;;;25.80;36.80;;;;;;4968044;28;20117;-51
2022/07/06 12:22:05;;;;;;;2.90;0.60;;;25.80;37.10;;;;;;4977148;28;20108;-49
2022/07/06 12:24:33;;;;;;;7.88;0.90;;;25.90;36.70;;;;;;4973278;28;21487;-53
2022/07/06 12:27:17;;;;;;;1.60;0.40;;;26.00;36.10;;;;;;4972201;28;20034;-49
2022/07/06 12:29:45;;;;;;;0.32;0.28;;;26.00;35.90;;;;;;4990960;28;20045;-50
2022/07/06 12:32:22;;;;;;;0.82;0.40;;;26.00;36.00;;;;;;4988235;28;20439;-53
2022/07/06 12:35:06;;;;;;;0.82;0.35;;;26.10;35.80;;;;;;4984956;28;20046;-54
2022/07/06 12:37:33;;;;;;;0.32;0.32;;;26.20;35.30;;;;;;4985767;28;20039;-54
2022/07/06 12:40:00;;;;;;;1.77;0.60;;;26.10;35.60;;;;;;4988012;28;20049;-54
2022/07/06 12:42:28;;;;;;;1.85;0.50;;;26.10;35.60;;;;;;4983913;28;20042;-54
2022/07/06 12:44:55;;;;;;;0.77;0.45;;;26.10;35.50;;;;;;4983330;28;20054;-53
2022/07/06 12:47:24;;;;;;;1.40;0.45;;;26.10;36.10;;;;;;4959021;28;20046;-53
2022/07/06 12:50:06;;;;;;;0.32;0.32;;;26.00;36.10;;;;;;4981399;28;20058;-54
2022/07/06 12:52:36;;;;;;;0.38;0.30;;;26.00;35.70;;;;;;4988607;28;20406;-54
2022/07/06 12:55:04;;;;;;;1.33;0.57;;;26.00;36.10;;;;;;4979286;28;20065;-54
2022/07/06 12:57:46;;;;;;;1.55;0.47;;;26.00;35.70;;;;;;4983629;28;20046;-49
2022/07/06 13:00:13;;;;;;;2.67;0.50;;;26.00;35.60;;;;;;4987838;28;20042;-50
2022/07/06 13:02:43;;;;;;;0.40;0.40;;;26.00;35.30;;;;;;4984861;28;20093;-54
2022/07/06 13:05:30;;;;;;;0.60;0.35;;;26.00;35.50;;;;;;4977507;28;20081;-54
2022/07/06 13:07:58;;;;;;;1.48;0.50;;;26.00;35.50;;;;;;4991244;28;20603;-49